Pride of Baltimore II — WUW2120 — position and weather

sailwx.info

Track history (hours):
 
Tides and Currents Weather Stations Pressure Air Temp Water Temp Dewpoint Dewpoint Depression Visibility Wind Speed Wind Dir Waves Ship Positions

Pride of Baltimore II (United States)

Reproduction of an 1812-era Baltimore Clipper privateer.

Ship's website: http://www.marylandspride.org/

Owner: PRIDE OF BALTIMORE INC, BALTIMORE, MD. More information available from US FCC via Universal Licensing System and Coast Guard Vessel Documentation Center.

Last reported at 2016-Apr-30 12:31 UTC. Time now 2016-Apr-30 20:40 UTC.
Position N 38°50' W 076°26'.

Type: Sailing vessel. MMSI: 303302000.

Date/timePositionNaut miles runAvg speedWind from/ knotsBaromVisibWave heightAir tempDewpointWater temp
2016-Apr-30 12:31N 38°50' W 076°26'6 6.4
2016-Apr-30 11:33N 38°56' W 076°26'4 3.3
2016-Apr-30 10:26N 38°59' W 076°29'0 0.0
2016-Apr-30 09:29N 38°59' W 076°29'0 0.0
2016-Apr-30 08:23N 38°59' W 076°29'0 0.0
2016-Apr-30 07:29N 38°59' W 076°29'0 0.0
2016-Apr-30 06:32N 38°59' W 076°29'0 0.0
2016-Apr-30 05:26N 38°59' W 076°29'0 0.0
2016-Apr-30 04:29N 38°59' W 076°29'0 0.0
2016-Apr-30 03:32N 38°59' W 076°29'0 0.0
2016-Apr-30 02:20N 38°59' W 076°29'0 0.0
2016-Apr-30 01:23N 38°59' W 076°29'0 0.0
2016-Apr-30 00:23N 38°59' W 076°29'0 0.0
2016-Apr-29 23:29N 38°59' W 076°29'0 0.0
2016-Apr-29 22:29N 38°59' W 076°29'0 0.0
2016-Apr-29 21:32N 38°59' W 076°29'0 0.0
2016-Apr-29 20:14N 38°59' W 076°29'0 0.0
2016-Apr-29 18:22N 38°59' W 076°29'3 3.9
2016-Apr-29 17:33N 38°58' W 076°25'6 6.4
2016-Apr-29 16:34N 39°04' W 076°23'7 6.8
2016-Apr-29 15:33N 39°11' W 076°26'7 6.7
2016-Apr-29 14:34N 39°15' W 076°33'2 1.7
2016-Apr-29 13:33N 39°16' W 076°34'0 0.2
2016-Apr-29 12:20N 39°16' W 076°34'0 0.0
2016-Apr-29 11:20N 39°16' W 076°34'0 0.0
2016-Apr-28 21:28N 39°16' W 076°34'0 0.0
2016-Apr-28 20:28N 39°16' W 076°34'0 0.0
2016-Apr-28 19:16N 39°16' W 076°34'0 0.0
2016-Apr-28 17:13N 39°16' W 076°34'0 0.0
2016-Apr-28 15:22N 39°16' W 076°34'0 0.0
2016-Apr-28 14:28N 39°16' W 076°34'0 0.0
2016-Apr-28 13:31N 39°16' W 076°34'0 0.0
2016-Apr-28 12:28N 39°16' W 076°34'0 0.0
2016-Apr-28 11:28N 39°16' W 076°34'0 0.0
2016-Apr-28 10:31N 39°16' W 076°34'0 0.0
2016-Apr-28 09:10N 39°16' W 076°34'0 0.0
2016-Apr-28 08:22N 39°16' W 076°34'0 0.0
2016-Apr-28 07:34N 39°16' W 076°34'0 0.0
2016-Apr-28 06:27N 39°16' W 076°34'0 0.0
2016-Apr-28 05:30N 39°16' W 076°34'0 0.0
2016-Apr-28 04:33N 39°16' W 076°34'0 0.0
2016-Apr-28 03:33N 39°16' W 076°34'0 0.0
2016-Apr-28 02:33N 39°16' W 076°34'0 0.0
2016-Apr-27 21:10N 39°16' W 076°34'2 3.5
2016-Apr-27 20:33N 39°17' W 076°37'2 2.2
2016-Apr-27 19:33N 39°16' W 076°35'2 1.9
2016-Apr-27 18:23N 39°17' W 076°37'0 0.0
2016-Apr-27 17:23N 39°17' W 076°37'0 0.3
2016-Apr-27 16:33N 39°17' W 076°36'2 1.9
2016-Apr-27 15:33N 39°16' W 076°34'0 0.0
2016-Apr-27 14:31N 39°16' W 076°34'0 0.0
2016-Apr-27 13:07N 39°16' W 076°34'0 0.0
2016-Apr-27 10:28N 39°16' W 076°34'0 0.0
2016-Apr-27 04:28N 39°16' W 076°34'0 0.0
2016-Apr-27 03:28N 39°16' W 076°34'0 0.0
2016-Apr-27 02:28N 39°16' W 076°34'0 0.0
2016-Apr-27 01:22N 39°16' W 076°34'0 0.0
2016-Apr-27 00:16N 39°16' W 076°34'0 0.0
2016-Apr-26 23:28N 39°16' W 076°34'0 0.0
2016-Apr-26 22:28N 39°16' W 076°34'0 0.0
2016-Apr-26 21:34N 39°16' W 076°34'0 0.0
2016-Apr-26 20:27N 39°16' W 076°34'0 0.0
2016-Apr-26 19:33N 39°16' W 076°34'0 0.0
2016-Apr-26 18:25N 39°16' W 076°34'0 0.0
2016-Apr-26 17:33N 39°16' W 076°34'0 0.0
2016-Apr-26 16:30N 39°16' W 076°34'0 0.0
2016-Apr-26 15:27N 39°16' W 076°34'0 0.3
2016-Apr-26 14:33N 39°16' W 076°34'7 7.1
2016-Apr-26 13:33N 39°11' W 076°28'7 7.3
2016-Apr-26 12:33N 39°05' W 076°23'9 9.2
2016-Apr-26 11:33N 38°56' W 076°24'124 8.3
2016-Apr-25 20:33N 36°52' W 076°19'2 2.3
2016-Apr-25 19:33N 36°50' W 076°18'0 0.0
2016-Apr-25 18:33N 36°50' W 076°18'0 0.0
2016-Apr-25 17:33N 36°50' W 076°18'0 0.0
2016-Apr-25 16:33N 36°50' W 076°18'0 0.0
2016-Apr-25 15:30N 36°50' W 076°18'0 0.4
2016-Apr-25 14:34N 36°50' W 076°17'0 0.3
2016-Apr-25 13:31N 36°50' W 076°18'0 0.0
2016-Apr-25 12:31N 36°50' W 076°18'0 0.0
2016-Apr-25 11:31N 36°50' W 076°18'0 0.0
2016-Apr-25 10:31N 36°50' W 076°18'0 0.0
2016-Apr-25 09:31N 36°50' W 076°18'0 0.0
2016-Apr-25 08:31N 36°50' W 076°18'0 0.0
2016-Apr-25 07:31N 36°50' W 076°18'0 0.0
2016-Apr-25 06:31N 36°50' W 076°18'0 0.0
2016-Apr-25 05:31N 36°50' W 076°18'0 0.0
2016-Apr-25 04:31N 36°50' W 076°18'0 0.0
2016-Apr-25 03:31N 36°50' W 076°18'0 0.0
2016-Apr-25 02:31N 36°50' W 076°18'0 0.0
2016-Apr-25 01:31N 36°50' W 076°18'0 0.0
2016-Apr-25 00:31N 36°50' W 076°18'0 0.0
2016-Apr-24 23:31N 36°50' W 076°18'0 0.0
2016-Apr-24 22:31N 36°50' W 076°18'0 0.0
2016-Apr-24 21:31N 36°50' W 076°18'0 0.0
2016-Apr-24 20:31N 36°50' W 076°18'0 0.0
2016-Apr-24 19:31N 36°50' W 076°18'0 0.0
2016-Apr-24 18:31N 36°50' W 076°18'0 0.0
2016-Apr-24 17:31N 36°50' W 076°18'0 0.0
2016-Apr-24 16:31N 36°50' W 076°18'0 0.0
2016-Apr-24 15:31N 36°50' W 076°18'0 0.0
2016-Apr-24 14:31N 36°50' W 076°18'0 0.0
2016-Apr-24 13:31N 36°50' W 076°18'0 0.0
2016-Apr-24 12:31N 36°50' W 076°18'0 0.0
2016-Apr-24 11:34N 36°50' W 076°18'0 0.0
2016-Apr-24 10:34N 36°50' W 076°18'0 0.0
2016-Apr-24 09:33N 36°50' W 076°18'0 0.0
2016-Apr-24 08:33N 36°50' W 076°18'0 0.0
2016-Apr-24 07:33N 36°50' W 076°18'0 0.0
2016-Apr-24 06:33N 36°50' W 076°18'0 0.0
2016-Apr-24 05:33N 36°50' W 076°18'0 0.0
2016-Apr-24 04:33N 36°50' W 076°18'0 0.0
2016-Apr-24 03:33N 36°50' W 076°18'0 0.0
2016-Apr-24 02:33N 36°50' W 076°18'0 0.0
2016-Apr-24 01:33N 36°50' W 076°18'0 0.0
2016-Apr-24 00:33N 36°50' W 076°18'0 0.0
2016-Apr-23 23:33N 36°50' W 076°18'0 0.0
2016-Apr-23 22:33N 36°50' W 076°18'0 0.0
2016-Apr-23 21:33N 36°50' W 076°18'0 0.0
2016-Apr-23 20:33N 36°50' W 076°18'0 0.0
2016-Apr-23 19:33N 36°50' W 076°18'0 0.0
2016-Apr-23 18:33N 36°50' W 076°18'0 0.0
2016-Apr-23 17:33N 36°50' W 076°18'0 0.0
2016-Apr-23 16:33N 36°50' W 076°18'0 0.0
2016-Apr-23 15:30N 36°50' W 076°18'0 0.0
2016-Apr-23 14:30N 36°50' W 076°18'0 0.0
2016-Apr-23 13:33N 36°50' W 076°18'0 0.0
2016-Apr-23 12:33N 36°50' W 076°18'0 0.0
2016-Apr-23 11:33N 36°50' W 076°18'0 0.0
2016-Apr-23 10:33N 36°50' W 076°18'0 0.0
2016-Apr-23 09:33N 36°50' W 076°18'0 0.0
2016-Apr-23 08:33N 36°50' W 076°18'0 0.0
2016-Apr-23 07:33N 36°50' W 076°18'0 0.0
2016-Apr-23 06:33N 36°50' W 076°18'0 0.0
2016-Apr-23 05:33N 36°50' W 076°18'0 0.0
2016-Apr-23 04:33N 36°50' W 076°18'0 0.0
2016-Apr-23 03:33N 36°50' W 076°18'0 0.0
2016-Apr-23 02:33N 36°50' W 076°18'0 0.0
2016-Apr-23 01:33N 36°50' W 076°18'0 0.0
2016-Apr-23 00:33N 36°50' W 076°18'0 0.0
2016-Apr-22 23:33N 36°50' W 076°18'0 0.0
2016-Apr-22 22:33N 36°50' W 076°18'0 0.0
2016-Apr-22 21:33N 36°50' W 076°18'0 0.0
2016-Apr-22 20:32N 36°50' W 076°18'0 0.0
2016-Apr-22 19:32N 36°50' W 076°18'0 0.0
2016-Apr-22 18:32N 36°50' W 076°18'0 0.0
2016-Apr-22 17:32N 36°50' W 076°18'0 0.0
2016-Apr-22 16:32N 36°50' W 076°18'0 0.0
2016-Apr-22 15:32N 36°50' W 076°18'0 0.0
2016-Apr-22 14:32N 36°50' W 076°18'0 0.0
2016-Apr-22 13:32N 36°50' W 076°18'0 0.0
2016-Apr-22 12:32N 36°50' W 076°18'0 0.0
2016-Apr-22 11:32N 36°50' W 076°18'0 0.0
2016-Apr-22 10:32N 36°50' W 076°18'0 0.0
2016-Apr-22 09:32N 36°50' W 076°18'0 0.0
2016-Apr-22 08:32N 36°50' W 076°18'0 0.0
2016-Apr-22 07:32N 36°50' W 076°18'0 0.0
2016-Apr-22 06:32N 36°50' W 076°18'0 0.0
2016-Apr-22 05:32N 36°50' W 076°18'0 0.0
2016-Apr-22 04:32N 36°50' W 076°18'0 0.0
2016-Apr-22 03:32N 36°50' W 076°18'0 0.0
2016-Apr-22 02:32N 36°50' W 076°18'0 0.0
2016-Apr-22 01:32N 36°50' W 076°18'0 0.0
2016-Apr-22 00:32N 36°50' W 076°18'0 0.0
2016-Apr-21 23:32N 36°50' W 076°18'0 0.0
2016-Apr-21 22:32N 36°50' W 076°18'0 0.0
2016-Apr-21 21:32N 36°50' W 076°18'0 0.0
2016-Apr-21 20:32N 36°50' W 076°18'0 0.0
2016-Apr-21 19:32N 36°50' W 076°18'0 0.0
2016-Apr-21 18:32N 36°50' W 076°18'0 0.0
2016-Apr-21 17:32N 36°50' W 076°18'0 0.0
2016-Apr-21 16:29N 36°50' W 076°18'0 0.0
2016-Apr-21 15:32N 36°50' W 076°18'0 0.0
2016-Apr-21 14:32N 36°50' W 076°18'0 0.0
2016-Apr-21 13:32N 36°50' W 076°18'0 0.0
2016-Apr-21 12:32N 36°50' W 076°18'0 0.0
2016-Apr-21 11:32N 36°50' W 076°18'0 0.0
2016-Apr-21 10:32N 36°50' W 076°18'0 0.0
2016-Apr-21 09:32N 36°50' W 076°18'0 0.0
2016-Apr-21 08:32N 36°50' W 076°18'0 0.0
2016-Apr-21 07:31N 36°50' W 076°18'0 0.0
2016-Apr-21 06:31N 36°50' W 076°18'0 0.0
2016-Apr-21 05:31N 36°50' W 076°18'0 0.0
2016-Apr-21 04:28N 36°50' W 076°18'0 0.0
2016-Apr-21 03:31N 36°50' W 076°18'0 0.0
2016-Apr-21 02:31N 36°50' W 076°18'0 0.0
2016-Apr-21 01:31N 36°50' W 076°18'0 0.0
2016-Apr-21 00:31N 36°50' W 076°18'0 0.0
2016-Apr-20 23:31N 36°50' W 076°18'0 0.0
2016-Apr-20 22:31N 36°50' W 076°18'0 0.0
2016-Apr-20 21:31N 36°50' W 076°18'0 0.0
2016-Apr-20 20:31N 36°50' W 076°18'0 0.0
2016-Apr-20 19:31N 36°50' W 076°18'0 0.0
2016-Apr-20 18:31N 36°50' W 076°18'0 0.0
2016-Apr-20 17:28N 36°50' W 076°18'0 0.0
2016-Apr-20 16:28N 36°50' W 076°18'0 0.0
2016-Apr-20 15:31N 36°50' W 076°18'0 0.0
2016-Apr-20 14:31N 36°50' W 076°18'0 0.0
2016-Apr-20 13:31N 36°50' W 076°18'0 0.0
2016-Apr-20 12:31N 36°50' W 076°18'  
Track history (hours):
 
Tides and Currents Weather Stations Pressure Air Temp Water Temp Dewpoint Dewpoint Depression Visibility Wind Speed Wind Dir Waves Ship Positions

Pride of Baltimore II (United States)

Reproduction of an 1812-era Baltimore Clipper privateer.

Ship's website: http://www.marylandspride.org/

Owner: PRIDE OF BALTIMORE INC, BALTIMORE, MD. More information available from US FCC via Universal Licensing System and Coast Guard Vessel Documentation Center.

Last reported at 2016-Apr-30 12:31 UTC. Time now 2016-Apr-30 20:40 UTC.
Position N 38°50' W 076°26'.

Type: Sailing vessel. MMSI: 303302000.

Date/timePositionNaut miles runAvg speedWind from/ knotsBaromVisibWave heightAir tempDewpointWater temp
2016-Apr-30 12:31N 38°50' W 076°26'6 6.4
2016-Apr-30 11:33N 38°56' W 076°26'4 3.3
2016-Apr-30 10:26N 38°59' W 076°29'0 0.0
2016-Apr-30 09:29N 38°59' W 076°29'0 0.0
2016-Apr-30 08:23N 38°59' W 076°29'0 0.0
2016-Apr-30 07:29N 38°59' W 076°29'0 0.0
2016-Apr-30 06:32N 38°59' W 076°29'0 0.0
2016-Apr-30 05:26N 38°59' W 076°29'0 0.0
2016-Apr-30 04:29N 38°59' W 076°29'0 0.0
2016-Apr-30 03:32N 38°59' W 076°29'0 0.0
2016-Apr-30 02:20N 38°59' W 076°29'0 0.0
2016-Apr-30 01:23N 38°59' W 076°29'0 0.0
2016-Apr-30 00:23N 38°59' W 076°29'0 0.0
2016-Apr-29 23:29N 38°59' W 076°29'0 0.0
2016-Apr-29 22:29N 38°59' W 076°29'0 0.0
2016-Apr-29 21:32N 38°59' W 076°29'0 0.0
2016-Apr-29 20:14N 38°59' W 076°29'0 0.0
2016-Apr-29 18:22N 38°59' W 076°29'3 3.9
2016-Apr-29 17:33N 38°58' W 076°25'6 6.4
2016-Apr-29 16:34N 39°04' W 076°23'7 6.8
2016-Apr-29 15:33N 39°11' W 076°26'7 6.7
2016-Apr-29 14:34N 39°15' W 076°33'2 1.7
2016-Apr-29 13:33N 39°16' W 076°34'0 0.2
2016-Apr-29 12:20N 39°16' W 076°34'0 0.0
2016-Apr-29 11:20N 39°16' W 076°34'0 0.0
2016-Apr-28 21:28N 39°16' W 076°34'0 0.0
2016-Apr-28 20:28N 39°16' W 076°34'0 0.0
2016-Apr-28 19:16N 39°16' W 076°34'0 0.0
2016-Apr-28 17:13N 39°16' W 076°34'0 0.0
2016-Apr-28 15:22N 39°16' W 076°34'0 0.0
2016-Apr-28 14:28N 39°16' W 076°34'0 0.0
2016-Apr-28 13:31N 39°16' W 076°34'0 0.0
2016-Apr-28 12:28N 39°16' W 076°34'0 0.0
2016-Apr-28 11:28N 39°16' W 076°34'0 0.0
2016-Apr-28 10:31N 39°16' W 076°34'0 0.0
2016-Apr-28 09:10N 39°16' W 076°34'0 0.0
2016-Apr-28 08:22N 39°16' W 076°34'0 0.0
2016-Apr-28 07:34N 39°16' W 076°34'0 0.0
2016-Apr-28 06:27N 39°16' W 076°34'0 0.0
2016-Apr-28 05:30N 39°16' W 076°34'0 0.0
2016-Apr-28 04:33N 39°16' W 076°34'0 0.0
2016-Apr-28 03:33N 39°16' W 076°34'0 0.0
2016-Apr-28 02:33N 39°16' W 076°34'0 0.0
2016-Apr-27 21:10N 39°16' W 076°34'2 3.5
2016-Apr-27 20:33N 39°17' W 076°37'2 2.2
2016-Apr-27 19:33N 39°16' W 076°35'2 1.9
2016-Apr-27 18:23N 39°17' W 076°37'0 0.0
2016-Apr-27 17:23N 39°17' W 076°37'0 0.3
2016-Apr-27 16:33N 39°17' W 076°36'2 1.9
2016-Apr-27 15:33N 39°16' W 076°34'0 0.0
2016-Apr-27 14:31N 39°16' W 076°34'0 0.0
2016-Apr-27 13:07N 39°16' W 076°34'0 0.0
2016-Apr-27 10:28N 39°16' W 076°34'0 0.0
2016-Apr-27 04:28N 39°16' W 076°34'0 0.0
2016-Apr-27 03:28N 39°16' W 076°34'0 0.0
2016-Apr-27 02:28N 39°16' W 076°34'0 0.0
2016-Apr-27 01:22N 39°16' W 076°34'0 0.0
2016-Apr-27 00:16N 39°16' W 076°34'0 0.0
2016-Apr-26 23:28N 39°16' W 076°34'0 0.0
2016-Apr-26 22:28N 39°16' W 076°34'0 0.0
2016-Apr-26 21:34N 39°16' W 076°34'0 0.0
2016-Apr-26 20:27N 39°16' W 076°34'0 0.0
2016-Apr-26 19:33N 39°16' W 076°34'0 0.0
2016-Apr-26 18:25N 39°16' W 076°34'0 0.0
2016-Apr-26 17:33N 39°16' W 076°34'0 0.0
2016-Apr-26 16:30N 39°16' W 076°34'0 0.0
2016-Apr-26 15:27N 39°16' W 076°34'0 0.3
2016-Apr-26 14:33N 39°16' W 076°34'7 7.1
2016-Apr-26 13:33N 39°11' W 076°28'7 7.3
2016-Apr-26 12:33N 39°05' W 076°23'9 9.2
2016-Apr-26 11:33N 38°56' W 076°24'124 8.3
2016-Apr-25 20:33N 36°52' W 076°19'2 2.3
2016-Apr-25 19:33N 36°50' W 076°18'0 0.0
2016-Apr-25 18:33N 36°50' W 076°18'0 0.0
2016-Apr-25 17:33N 36°50' W 076°18'0 0.0
2016-Apr-25 16:33N 36°50' W 076°18'0 0.0
2016-Apr-25 15:30N 36°50' W 076°18'0 0.4
2016-Apr-25 14:34N 36°50' W 076°17'0 0.3
2016-Apr-25 13:31N 36°50' W 076°18'0 0.0
2016-Apr-25 12:31N 36°50' W 076°18'0 0.0
2016-Apr-25 11:31N 36°50' W 076°18'0 0.0
2016-Apr-25 10:31N 36°50' W 076°18'0 0.0
2016-Apr-25 09:31N 36°50' W 076°18'0 0.0
2016-Apr-25 08:31N 36°50' W 076°18'0 0.0
2016-Apr-25 07:31N 36°50' W 076°18'0 0.0
2016-Apr-25 06:31N 36°50' W 076°18'0 0.0
2016-Apr-25 05:31N 36°50' W 076°18'0 0.0
2016-Apr-25 04:31N 36°50' W 076°18'0 0.0
2016-Apr-25 03:31N 36°50' W 076°18'0 0.0
2016-Apr-25 02:31N 36°50' W 076°18'0 0.0
2016-Apr-25 01:31N 36°50' W 076°18'0 0.0
2016-Apr-25 00:31N 36°50' W 076°18'0 0.0
2016-Apr-24 23:31N 36°50' W 076°18'0 0.0
2016-Apr-24 22:31N 36°50' W 076°18'0 0.0
2016-Apr-24 21:31N 36°50' W 076°18'0 0.0
2016-Apr-24 20:31N 36°50' W 076°18'0 0.0
2016-Apr-24 19:31N 36°50' W 076°18'0 0.0
2016-Apr-24 18:31N 36°50' W 076°18'0 0.0
2016-Apr-24 17:31N 36°50' W 076°18'0 0.0
2016-Apr-24 16:31N 36°50' W 076°18'0 0.0
2016-Apr-24 15:31N 36°50' W 076°18'0 0.0
2016-Apr-24 14:31N 36°50' W 076°18'0 0.0
2016-Apr-24 13:31N 36°50' W 076°18'0 0.0
2016-Apr-24 12:31N 36°50' W 076°18'0 0.0
2016-Apr-24 11:34N 36°50' W 076°18'0 0.0
2016-Apr-24 10:34N 36°50' W 076°18'0 0.0
2016-Apr-24 09:33N 36°50' W 076°18'0 0.0
2016-Apr-24 08:33N 36°50' W 076°18'0 0.0
2016-Apr-24 07:33N 36°50' W 076°18'0 0.0
2016-Apr-24 06:33N 36°50' W 076°18'0 0.0
2016-Apr-24 05:33N 36°50' W 076°18'0 0.0
2016-Apr-24 04:33N 36°50' W 076°18'0 0.0
2016-Apr-24 03:33N 36°50' W 076°18'0 0.0
2016-Apr-24 02:33N 36°50' W 076°18'0 0.0
2016-Apr-24 01:33N 36°50' W 076°18'0 0.0
2016-Apr-24 00:33N 36°50' W 076°18'0 0.0
2016-Apr-23 23:33N 36°50' W 076°18'0 0.0
2016-Apr-23 22:33N 36°50' W 076°18'0 0.0
2016-Apr-23 21:33N 36°50' W 076°18'0 0.0
2016-Apr-23 20:33N 36°50' W 076°18'0 0.0
2016-Apr-23 19:33N 36°50' W 076°18'0 0.0
2016-Apr-23 18:33N 36°50' W 076°18'0 0.0
2016-Apr-23 17:33N 36°50' W 076°18'0 0.0
2016-Apr-23 16:33N 36°50' W 076°18'0 0.0
2016-Apr-23 15:30N 36°50' W 076°18'0 0.0
2016-Apr-23 14:30N 36°50' W 076°18'0 0.0
2016-Apr-23 13:33N 36°50' W 076°18'0 0.0
2016-Apr-23 12:33N 36°50' W 076°18'0 0.0
2016-Apr-23 11:33N 36°50' W 076°18'0 0.0
2016-Apr-23 10:33N 36°50' W 076°18'0 0.0
2016-Apr-23 09:33N 36°50' W 076°18'0 0.0
2016-Apr-23 08:33N 36°50' W 076°18'0 0.0
2016-Apr-23 07:33N 36°50' W 076°18'0 0.0
2016-Apr-23 06:33N 36°50' W 076°18'0 0.0
2016-Apr-23 05:33N 36°50' W 076°18'0 0.0
2016-Apr-23 04:33N 36°50' W 076°18'0 0.0
2016-Apr-23 03:33N 36°50' W 076°18'0 0.0
2016-Apr-23 02:33N 36°50' W 076°18'0 0.0
2016-Apr-23 01:33N 36°50' W 076°18'0 0.0
2016-Apr-23 00:33N 36°50' W 076°18'0 0.0
2016-Apr-22 23:33N 36°50' W 076°18'0 0.0
2016-Apr-22 22:33N 36°50' W 076°18'0 0.0
2016-Apr-22 21:33N 36°50' W 076°18'0 0.0
2016-Apr-22 20:32N 36°50' W 076°18'0 0.0
2016-Apr-22 19:32N 36°50' W 076°18'0 0.0
2016-Apr-22 18:32N 36°50' W 076°18'0 0.0
2016-Apr-22 17:32N 36°50' W 076°18'0 0.0
2016-Apr-22 16:32N 36°50' W 076°18'0 0.0
2016-Apr-22 15:32N 36°50' W 076°18'0 0.0
2016-Apr-22 14:32N 36°50' W 076°18'0 0.0
2016-Apr-22 13:32N 36°50' W 076°18'0 0.0
2016-Apr-22 12:32N 36°50' W 076°18'0 0.0
2016-Apr-22 11:32N 36°50' W 076°18'0 0.0
2016-Apr-22 10:32N 36°50' W 076°18'0 0.0
2016-Apr-22 09:32N 36°50' W 076°18'0 0.0
2016-Apr-22 08:32N 36°50' W 076°18'0 0.0
2016-Apr-22 07:32N 36°50' W 076°18'0 0.0
2016-Apr-22 06:32N 36°50' W 076°18'0 0.0
2016-Apr-22 05:32N 36°50' W 076°18'0 0.0
2016-Apr-22 04:32N 36°50' W 076°18'0 0.0
2016-Apr-22 03:32N 36°50' W 076°18'0 0.0
2016-Apr-22 02:32N 36°50' W 076°18'0 0.0
2016-Apr-22 01:32N 36°50' W 076°18'0 0.0
2016-Apr-22 00:32N 36°50' W 076°18'0 0.0
2016-Apr-21 23:32N 36°50' W 076°18'0 0.0
2016-Apr-21 22:32N 36°50' W 076°18'0 0.0
2016-Apr-21 21:32N 36°50' W 076°18'0 0.0
2016-Apr-21 20:32N 36°50' W 076°18'0 0.0
2016-Apr-21 19:32N 36°50' W 076°18'0 0.0
2016-Apr-21 18:32N 36°50' W 076°18'0 0.0
2016-Apr-21 17:32N 36°50' W 076°18'0 0.0
2016-Apr-21 16:29N 36°50' W 076°18'0 0.0
2016-Apr-21 15:32N 36°50' W 076°18'0 0.0
2016-Apr-21 14:32N 36°50' W 076°18'0 0.0
2016-Apr-21 13:32N 36°50' W 076°18'0 0.0
2016-Apr-21 12:32N 36°50' W 076°18'0 0.0
2016-Apr-21 11:32N 36°50' W 076°18'0 0.0
2016-Apr-21 10:32N 36°50' W 076°18'0 0.0
2016-Apr-21 09:32N 36°50' W 076°18'0 0.0
2016-Apr-21 08:32N 36°50' W 076°18'0 0.0
2016-Apr-21 07:31N 36°50' W 076°18'0 0.0
2016-Apr-21 06:31N 36°50' W 076°18'0 0.0
2016-Apr-21 05:31N 36°50' W 076°18'0 0.0
2016-Apr-21 04:28N 36°50' W 076°18'0 0.0
2016-Apr-21 03:31N 36°50' W 076°18'0 0.0
2016-Apr-21 02:31N 36°50' W 076°18'0 0.0
2016-Apr-21 01:31N 36°50' W 076°18'0 0.0
2016-Apr-21 00:31N 36°50' W 076°18'0 0.0
2016-Apr-20 23:31N 36°50' W 076°18'0 0.0
2016-Apr-20 22:31N 36°50' W 076°18'0 0.0
2016-Apr-20 21:31N 36°50' W 076°18'0 0.0
2016-Apr-20 20:31N 36°50' W 076°18'0 0.0
2016-Apr-20 19:31N 36°50' W 076°18'0 0.0
2016-Apr-20 18:31N 36°50' W 076°18'0 0.0
2016-Apr-20 17:28N 36°50' W 076°18'0 0.0
2016-Apr-20 16:28N 36°50' W 076°18'0 0.0
2016-Apr-20 15:31N 36°50' W 076°18'0 0.0
2016-Apr-20 14:31N 36°50' W 076°18'0 0.0
2016-Apr-20 13:31N 36°50' W 076°18'0 0.0
2016-Apr-20 12:31N 36°50' W 076°18'  

Dump ship's entire track history